createdAt,value
2019-01-21T00:00:46.327Z,102286.78
2019-01-21T00:03:14.656Z,102287.87
2019-01-21T00:05:42.057Z,102288.78
2019-01-21T00:08:09.157Z,102287.70
2019-01-21T00:10:36.198Z,102292.84
2019-01-21T00:13:03.696Z,102289.27
2019-01-21T00:15:30.967Z,102288.92
2019-01-21T00:17:57.991Z,102288.58
2019-01-21T00:20:25.049Z,102288.04
2019-01-21T00:22:52.123Z,102289.32
2019-01-21T00:25:19.168Z,102292.08
2019-01-21T00:27:46.215Z,102290.26
2019-01-21T00:30:13.339Z,102297.23
2019-01-21T00:32:40.416Z,102302.38
2019-01-21T00:35:08.378Z,102301.30
2019-01-21T00:37:35.568Z,102295.09
2019-01-21T00:40:03.506Z,102287.23
2019-01-21T00:42:30.537Z,102287.06
2019-01-21T00:44:57.938Z,102287.80
2019-01-21T00:47:29.840Z,102297.70
2019-01-21T00:49:53.913Z,102296.41
2019-01-21T00:52:21.001Z,102308.11
2019-01-21T00:54:48.031Z,102304.45
2019-01-21T00:57:15.410Z,102296.39
2019-01-21T00:59:42.504Z,102302.62
2019-01-21T01:02:09.635Z,102310.35
2019-01-21T01:04:36.677Z,102308.35
2019-01-21T01:07:03.788Z,102314.92
2019-01-21T01:09:30.863Z,102314.36
2019-01-21T01:11:58.072Z,102320.42
2019-01-21T01:14:25.111Z,102325.21
2019-01-21T01:16:52.214Z,102318.83
2019-01-21T01:19:19.275Z,102322.32
2019-01-21T01:21:46.309Z,102324.36
2019-01-21T01:24:14.576Z,102321.60
2019-01-21T01:26:41.613Z,102328.91
2019-01-21T01:29:08.645Z,102331.10
2019-01-21T01:31:35.716Z,102335.48
2019-01-21T01:34:02.750Z,102338.22
2019-01-21T01:36:29.793Z,102348.09
2019-01-21T01:41:37.348Z,102336.92
2019-01-21T01:44:04.403Z,102342.06
2019-01-21T01:46:31.507Z,102340.95
2019-01-21T01:48:58.989Z,102349.01
2019-01-21T01:51:26.150Z,102348.09
2019-01-21T01:53:53.314Z,102346.64
2019-01-21T01:56:40.668Z,102352.49
2019-01-21T01:59:08.198Z,102353.58
2019-01-21T02:01:35.244Z,102351.22
2019-01-21T02:04:02.318Z,102357.98
2019-01-21T02:06:29.945Z,102357.62
2019-01-21T02:08:57.040Z,102352.32
2019-01-21T02:11:24.128Z,102350.49
2019-01-21T02:13:51.484Z,102355.42
2019-01-21T02:16:18.532Z,102351.58
2019-01-21T02:18:45.635Z,102346.66
2019-01-21T02:21:12.700Z,102346.13
2019-01-21T02:23:43.916Z,102349.80
2019-01-21T02:26:21.588Z,102349.04
2019-01-21T02:29:16.996Z,102347.23
2019-01-21T02:32:29.015Z,102348.52
2019-01-21T02:35:36.239Z,102353.27
2019-01-21T02:38:41.473Z,102353.08
2019-01-21T02:42:01.567Z,102349.44
2019-01-21T02:44:58.382Z,102342.88
2019-01-21T02:47:37.274Z,102336.86
2019-01-21T02:50:26.779Z,102338.14
2019-01-21T02:53:33.026Z,102332.11
2019-01-21T02:56:30.668Z,102329.19
2019-01-21T02:59:34.542Z,102325.89
2019-01-21T03:02:45.286Z,102326.62
2019-01-21T03:06:11.627Z,102320.61
2019-01-21T03:09:31.378Z,102313.86
2019-01-21T03:12:36.029Z,102315.49
2019-01-21T03:16:09.685Z,102313.86
2019-01-21T03:19:16.794Z,102310.94
2019-01-21T03:22:06.989Z,102311.46
2019-01-21T03:25:14.553Z,102315.64
2019-01-21T03:28:19.440Z,102313.43
2019-01-21T03:31:44.087Z,102309.98
2019-01-21T03:34:37.177Z,102308.36
2019-01-21T03:38:10.421Z,102306.38
2019-01-21T03:41:08.836Z,102306.76
2019-01-21T03:44:00.688Z,102310.41
2019-01-21T03:47:06.443Z,102315.69
2019-01-21T03:49:44.161Z,102325.18
2019-01-21T03:52:49.010Z,102325.74
2019-01-21T03:55:17.397Z,102329.59
2019-01-21T03:58:35.570Z,102327.03
2019-01-21T04:01:36.968Z,102326.13
2019-01-21T04:04:54.445Z,102329.05
2019-01-21T04:08:05.061Z,102335.44
2019-01-21T04:11:29.241Z,102332.89
2019-01-21T04:14:31.185Z,102328.33
2019-01-21T04:17:49.063Z,102326.32
2019-01-21T04:20:49.139Z,102329.80
2019-01-21T04:23:58.086Z,102332.91
2019-01-21T04:27:03.908Z,102331.63
2019-01-21T04:30:03.835Z,102329.80
2019-01-21T04:33:24.800Z,102328.36
2019-01-21T04:36:10.429Z,102325.63
2019-01-21T04:39:07.164Z,102317.58
2019-01-21T04:42:24.683Z,102320.51
2019-01-21T04:45:33.102Z,102329.84
2019-01-21T04:48:15.454Z,102315.94
2019-01-21T04:51:17.525Z,102325.44
2019-01-21T04:54:23.195Z,102325.63
2019-01-21T04:57:19.322Z,102315.03
2019-01-21T05:00:13.115Z,102315.77
2019-01-21T05:03:09.479Z,102325.83
2019-01-21T05:05:48.837Z,102323.45
2019-01-21T05:08:56.822Z,102328.02
2019-01-21T05:12:01.407Z,102322.54
2019-01-21T05:15:05.800Z,102318.89
2019-01-21T05:18:13.901Z,102315.06
2019-01-21T05:21:30.059Z,102306.67
2019-01-21T05:24:11.366Z,102298.63
2019-01-21T05:27:14.957Z,102297.71
2019-01-21T05:29:58.593Z,102302.83
2019-01-21T05:33:26.018Z,102305.20
2019-01-21T05:36:47.057Z,102310.50
2019-01-21T05:39:58.818Z,102313.59
2019-01-21T05:43:35.389Z,102323.82
2019-01-21T05:46:53.295Z,102329.29
2019-01-21T05:49:44.795Z,102329.66
2019-01-21T05:53:00.056Z,102325.47
2019-01-21T05:55:55.675Z,102326.57
2019-01-21T05:59:03.424Z,102327.67
2019-01-21T06:02:21.601Z,102335.52
2019-01-21T06:05:39.362Z,102332.05
2019-01-21T06:08:53.942Z,102332.78
2019-01-21T06:11:40.347Z,102326.93
2019-01-21T06:14:36.143Z,102323.47
2019-01-21T06:17:44.050Z,102325.86
2019-01-21T06:21:02.238Z,102330.44
2019-01-21T06:23:56.616Z,102332.99
2019-01-21T06:27:06.104Z,102335.19
2019-01-21T06:29:49.863Z,102342.30
2019-01-21T06:33:16.806Z,102337.37
2019-01-21T06:36:20.066Z,102336.81
2019-01-21T06:39:53.491Z,102349.23
2019-01-21T06:43:03.691Z,102345.59
2019-01-21T06:46:16.446Z,102345.59
2019-01-21T06:49:10.222Z,102347.97
2019-01-21T06:52:24.269Z,102345.96
2019-01-21T06:55:11.282Z,102346.15
2019-01-21T06:58:15.953Z,102349.08
2019-01-21T07:01:23.806Z,102352.72
2019-01-21T07:04:35.696Z,102363.31
2019-01-21T07:07:41.730Z,102369.34
2019-01-21T07:10:52.667Z,102381.39
2019-01-21T07:14:12.881Z,102389.23
2019-01-21T07:17:27.823Z,102389.60
2019-01-21T07:20:42.360Z,102383.58
2019-01-21T07:24:05.941Z,102386.13
2019-01-21T07:27:09.690Z,102383.58
2019-01-21T07:30:04.386Z,102391.25
2019-01-21T07:32:45.634Z,102401.30
2019-01-21T07:35:49.793Z,102399.10
2019-01-21T07:38:41.019Z,102401.48
2019-01-21T07:41:34.148Z,102406.59
2019-01-21T07:44:15.206Z,102402.57
2019-01-21T07:47:30.079Z,102411.33
2019-01-21T07:50:50.376Z,102412.98
2019-01-21T07:53:49.111Z,102413.89
2019-01-21T07:57:00.275Z,102420.83
2019-01-21T08:00:22.161Z,102423.56
2019-01-21T08:03:18.754Z,102425.94
2019-01-21T08:06:27.275Z,102423.02
2019-01-21T08:09:36.095Z,102423.19
2019-01-21T08:12:25.916Z,102428.48
2019-01-21T08:15:28.619Z,102421.54
2019-01-21T08:18:33.384Z,102425.36
2019-01-21T08:21:08.308Z,102430.29
2019-01-21T08:23:51.600Z,102437.95
2019-01-21T08:27:02.567Z,102440.14
2019-01-21T08:30:05.537Z,102438.67
2019-01-21T08:32:58.731Z,102432.81
2019-01-21T08:36:04.142Z,102433.34
2019-01-21T08:39:11.425Z,102431.88
2019-01-21T08:42:00.990Z,102437.19
2019-01-21T08:45:02.000Z,102432.03
2019-01-21T08:48:01.419Z,102430.71
2019-01-21T08:51:06.462Z,102423.73
2019-01-21T08:54:09.025Z,102424.25
2019-01-21T08:57:36.135Z,102422.38
2019-01-21T09:01:00.247Z,102423.58
2019-01-21T09:03:42.221Z,102425.23
2019-01-21T09:06:37.257Z,102424.77
2019-01-21T09:09:28.814Z,102416.43
2019-01-21T09:12:32.837Z,102412.98
2019-01-21T09:15:25.361Z,102410.86
2019-01-21T09:18:33.054Z,102420.08
2019-01-21T09:21:54.242Z,102426.73
2019-01-21T09:24:47.290Z,102431.34
2019-01-21T09:27:52.733Z,102427.63
2019-01-21T09:30:54.096Z,102422.94
2019-01-21T09:33:48.808Z,102418.05
2019-01-21T09:37:02.821Z,102412.03
2019-01-21T09:39:59.595Z,102415.91
2019-01-21T09:43:08.661Z,102416.13
2019-01-21T09:46:12.681Z,102415.48
2019-01-21T09:48:38.699Z,102423.91
2019-01-21T09:51:05.738Z,102424.17
2019-01-21T09:53:34.447Z,102431.98
2019-01-21T09:56:02.022Z,102430.26
2019-01-21T09:58:31.944Z,102417.97
2019-01-21T10:00:59.229Z,102415.21
2019-01-21T10:03:26.981Z,102417.28
2019-01-21T10:05:58.612Z,102410.59
2019-01-21T10:08:53.072Z,102404.55
2019-01-21T10:11:53.388Z,102406.17
2019-01-21T10:14:46.153Z,102403.05
2019-01-21T10:17:43.944Z,102397.00
2019-01-21T10:20:38.114Z,102394.05
2019-01-21T10:23:26.522Z,102389.73
2019-01-21T10:26:28.541Z,102394.81
2019-01-21T10:29:12.666Z,102384.12
2019-01-21T10:32:17.647Z,102386.55
2019-01-21T10:35:22.393Z,102376.53
2019-01-21T10:38:28.413Z,102369.84
2019-01-21T10:41:26.149Z,102369.38
2019-01-21T10:44:32.197Z,102364.20
2019-01-21T10:47:22.471Z,102361.08
2019-01-21T10:50:29.986Z,102357.33
2019-01-21T10:53:14.635Z,102354.95
2019-01-21T10:56:25.489Z,102358.95
2019-01-21T10:59:32.560Z,102359.00
2019-01-21T11:02:33.437Z,102357.86
2019-01-21T11:05:38.796Z,102351.89
2019-01-21T11:08:31.536Z,102359.84
2019-01-21T11:11:25.183Z,102352.37
2019-01-21T11:14:58.543Z,102354.53
2019-01-21T11:17:45.105Z,102347.50
2019-01-21T11:21:00.891Z,102344.86
2019-01-21T11:24:13.558Z,102340.02
2019-01-21T11:27:14.871Z,102336.19
2019-01-21T11:29:56.315Z,102324.11
2019-01-21T11:32:59.324Z,102325.72
2019-01-21T11:36:05.253Z,102326.52
2019-01-21T11:39:00.602Z,102315.86
2019-01-21T11:41:51.642Z,102316.31
2019-01-21T11:45:07.486Z,102307.31
2019-01-21T11:48:24.668Z,102308.94
2019-01-21T11:51:33.562Z,102311.03
2019-01-21T11:54:35.448Z,102305.53
2019-01-21T11:57:25.377Z,102299.73
2019-01-21T12:00:09.902Z,102293.30
2019-01-21T12:03:03.696Z,102290.47
2019-01-21T12:05:42.260Z,102285.71
2019-01-21T12:08:53.152Z,102283.13
2019-01-21T12:11:46.186Z,102274.48
2019-01-21T12:15:09.765Z,102272.56
2019-01-21T12:18:09.350Z,102268.83
2019-01-21T12:21:23.329Z,102261.31
2019-01-21T12:24:18.804Z,102266.24
2019-01-21T12:27:19.996Z,102258.60
2019-01-21T12:30:13.784Z,102260.03
2019-01-21T12:33:18.414Z,102258.86
2019-01-21T12:35:58.437Z,102253.41
2019-01-21T12:39:05.935Z,102259.62
2019-01-21T12:42:23.748Z,102255.50
2019-01-21T12:45:43.882Z,102248.60
2019-01-21T12:48:58.881Z,102245.22
2019-01-21T12:52:13.417Z,102242.34
2019-01-21T12:55:18.478Z,102239.45
2019-01-21T13:02:09.295Z,102233.33
2019-01-21T13:04:59.413Z,102227.23
2019-01-21T13:07:46.636Z,102221.16
2019-01-21T13:10:37.356Z,102210.70
2019-01-21T13:14:01.752Z,102206.86
2019-01-21T13:16:51.219Z,102200.97
2019-01-21T13:19:33.399Z,102191.35
2019-01-21T13:22:51.315Z,102183.31
2019-01-21T13:25:51.136Z,102172.22
2019-01-21T13:28:52.650Z,102174.33
2019-01-21T13:31:57.091Z,102167.72
2019-01-21T13:35:01.328Z,102158.83
2019-01-21T13:38:16.197Z,102153.75
2019-01-21T13:41:23.941Z,102151.20
2019-01-21T13:44:22.823Z,102144.48
2019-01-21T13:47:42.692Z,102133.86
2019-01-21T13:50:37.175Z,102128.77
2019-01-21T13:53:48.752Z,102125.47
2019-01-21T13:56:39.752Z,102131.05
2019-01-21T13:59:40.491Z,102125.45
2019-01-21T14:02:26.264Z,102131.27
2019-01-21T14:05:35.749Z,102129.50
2019-01-21T14:08:24.270Z,102124.67
2019-01-21T14:11:08.241Z,102116.64
2019-01-21T14:14:20.232Z,102113.78
2019-01-21T14:18:08.827Z,102116.33
2019-01-21T14:20:46.675Z,102105.91
2019-01-21T14:23:30.228Z,102107.29
2019-01-21T14:26:32.767Z,102111.97
2019-01-21T14:29:12.815Z,102111.19
2019-01-21T14:32:16.085Z,102111.98
2019-01-21T14:35:23.804Z,102108.91
2019-01-21T14:38:40.556Z,102110.40
2019-01-21T14:41:30.683Z,102104.87
2019-01-21T14:48:06.215Z,102087.41
2019-01-21T14:51:17.097Z,102078.24
2019-01-21T14:54:07.290Z,102075.45
2019-01-21T14:57:23.978Z,102072.16
2019-01-21T15:00:39.296Z,102082.53
2019-01-21T15:03:35.111Z,102080.64
2019-01-21T15:06:43.340Z,102079.55
2019-01-21T15:09:55.213Z,102085.05
2019-01-21T15:12:53.071Z,102084.66
2019-01-21T15:16:03.539Z,102089.02
2019-01-21T15:19:01.390Z,102085.05
2019-01-21T15:22:01.169Z,102095.89
2019-01-21T15:25:22.449Z,102103.70
2019-01-21T15:28:52.481Z,102105.97
2019-01-21T15:31:56.169Z,102112.64
2019-01-21T15:35:20.754Z,102113.48
2019-01-21T15:38:09.174Z,102108.42
2019-01-21T15:40:54.962Z,102100.15
2019-01-21T15:43:45.262Z,102097.48
2019-01-21T15:46:50.172Z,102089.89
2019-01-21T15:49:35.550Z,102086.83
2019-01-21T15:52:34.038Z,102092.55
2019-01-21T15:55:17.050Z,102085.35
2019-01-21T15:58:40.707Z,102086.81
2019-01-21T16:01:33.983Z,102088.28
2019-01-21T16:04:09.661Z,102084.16
2019-01-21T16:07:02.824Z,102073.70
2019-01-21T16:10:05.841Z,102078.25
2019-01-21T16:13:08.142Z,102079.28
2019-01-21T16:16:11.339Z,102078.18
2019-01-21T16:18:52.434Z,102084.59
2019-01-21T16:22:12.516Z,102083.78
2019-01-21T16:25:06.352Z,102076.88
2019-01-21T16:28:14.408Z,102074.59
2019-01-21T16:31:03.501Z,102073.48
2019-01-21T16:33:58.522Z,102063.84
2019-01-21T16:37:01.332Z,102059.98
2019-01-21T16:40:21.767Z,102063.61
2019-01-21T16:42:48.954Z,102057.85
2019-01-21T16:45:16.006Z,102064.89
2019-01-21T16:47:43.118Z,102067.57
2019-01-21T16:50:10.170Z,102052.62
2019-01-21T16:52:37.331Z,102060.22
2019-01-21T16:55:04.713Z,102061.47
2019-01-21T16:57:31.774Z,102061.77
2019-01-21T16:59:58.857Z,102055.61
2019-01-21T17:02:26.029Z,102059.15
2019-01-21T17:04:53.168Z,102056.63
2019-01-21T17:07:20.215Z,102053.47
2019-01-21T17:09:47.322Z,102053.03
2019-01-21T17:12:14.363Z,102048.59
2019-01-21T17:14:41.457Z,102045.34
2019-01-21T17:17:08.568Z,102047.25
2019-01-21T17:19:35.637Z,102042.05
2019-01-21T17:22:21.281Z,102046.00
2019-01-21T17:24:49.362Z,102042.47
2019-01-21T17:27:16.407Z,102035.41
2019-01-21T17:29:43.493Z,102044.89
2019-01-21T17:32:10.524Z,102039.83
2019-01-21T17:34:37.604Z,102039.02
2019-01-21T17:37:04.729Z,102044.11
2019-01-21T17:39:31.797Z,102026.94
2019-01-21T17:41:58.869Z,102027.25
2019-01-21T17:44:25.962Z,102031.05
2019-01-21T17:46:53.023Z,102023.27
2019-01-21T17:49:20.312Z,102029.27
2019-01-21T17:51:47.498Z,102024.11
2019-01-21T17:54:14.642Z,102024.26
2019-01-21T17:56:41.740Z,102024.41
2019-01-21T17:59:08.822Z,102024.41
2019-01-21T18:01:39.324Z,102027.06
2019-01-21T18:04:04.947Z,102030.76
2019-01-21T18:06:34.779Z,102027.72
2019-01-21T18:09:02.203Z,102020.55
2019-01-21T18:11:29.430Z,102030.48
2019-01-21T18:13:56.519Z,102030.04
2019-01-21T18:16:23.741Z,102029.22
2019-01-21T18:18:50.990Z,102025.97
2019-01-21T18:21:18.078Z,102022.34
2019-01-21T18:27:25.329Z,102028.33
2019-01-21T18:29:52.537Z,102025.90
2019-01-21T18:32:19.592Z,102024.99
2019-01-21T18:34:46.782Z,102023.94
2019-01-21T18:37:13.918Z,102014.41
2019-01-21T18:39:40.956Z,102018.49
2019-01-21T18:42:08.463Z,102013.34
2019-01-21T18:44:35.762Z,102010.86
2019-01-21T18:47:03.022Z,102004.73
2019-01-21T18:49:30.166Z,102005.42
2019-01-21T18:51:57.413Z,102005.80
2019-01-21T18:54:24.481Z,102000.52
2019-01-21T18:56:51.745Z,101998.92
2019-01-21T19:03:01.309Z,102000.59
2019-01-21T19:05:28.379Z,101985.55
2019-01-21T19:07:55.451Z,101988.88
2019-01-21T19:10:22.570Z,101983.44
2019-01-21T19:13:08.262Z,101985.78
2019-01-21T19:15:36.681Z,101983.66
2019-01-21T19:18:04.023Z,101984.05
2019-01-21T19:20:31.145Z,101981.25
2019-01-21T19:22:59.980Z,101980.87
2019-01-21T19:25:27.091Z,101973.31
2019-01-21T19:27:54.191Z,101968.81
2019-01-21T19:30:23.475Z,101975.39
2019-01-21T19:32:50.569Z,101968.59
2019-01-21T19:35:20.806Z,101971.83
2019-01-21T19:37:49.312Z,101970.02
2019-01-21T19:40:18.552Z,101975.16
2019-01-21T19:42:45.642Z,101971.15
2019-01-21T19:45:13.096Z,101964.95
2019-01-21T19:47:40.255Z,101963.74
2019-01-21T19:50:08.203Z,101967.89
2019-01-21T19:52:35.294Z,101965.24
2019-01-21T19:55:02.998Z,101966.22
2019-01-21T19:57:30.232Z,101971.59
2019-01-21T19:59:57.299Z,101957.98
2019-01-21T20:02:24.674Z,101960.55
2019-01-21T20:04:51.779Z,101957.98
2019-01-21T20:07:18.973Z,101959.34
2019-01-21T20:09:46.061Z,101958.50
2019-01-21T20:12:14.301Z,101959.33
2019-01-21T20:14:41.445Z,101955.17
2019-01-21T20:17:08.522Z,101946.41
2019-01-21T20:19:35.625Z,101952.45
2019-01-21T20:22:07.303Z,101952.36
2019-01-21T20:24:32.123Z,101945.64
2019-01-21T20:26:59.226Z,101944.73
2019-01-21T20:29:26.378Z,101936.64
2019-01-21T20:31:53.775Z,101940.43
2019-01-21T20:34:20.926Z,101929.41
2019-01-21T20:36:48.070Z,101925.02
2019-01-21T20:39:15.272Z,101927.66
2019-01-21T20:41:42.336Z,101917.84
2019-01-21T20:44:09.358Z,101920.47
2019-01-21T20:46:36.465Z,101923.95
2019-01-21T20:49:03.958Z,101920.31
2019-01-21T20:51:31.038Z,101915.03
2019-01-21T20:53:58.170Z,101913.22
2019-01-21T20:56:25.284Z,101915.32
2019-01-21T20:58:52.356Z,101914.55
2019-01-21T21:01:19.490Z,101914.46
2019-01-21T21:03:46.873Z,101915.44
2019-01-21T21:06:13.999Z,101912.56
2019-01-21T21:08:41.069Z,101911.27
2019-01-21T21:11:08.086Z,101902.67
2019-01-21T21:13:35.188Z,101907.58
2019-01-21T21:16:02.330Z,101908.55
2019-01-21T21:18:29.493Z,101900.70
2019-01-21T21:20:56.632Z,101900.70
2019-01-21T21:23:23.786Z,101903.48
2019-01-21T21:25:50.842Z,101894.95
2019-01-21T21:28:18.063Z,101895.55
2019-01-21T21:31:22.060Z,101894.48
2019-01-21T21:33:49.128Z,101885.34
2019-01-21T21:36:16.175Z,101883.69
2019-01-21T21:38:43.714Z,101882.78
2019-01-21T21:41:10.868Z,101885.34
2019-01-21T21:43:38.112Z,101879.52
2019-01-21T21:46:05.757Z,101879.06
2019-01-21T21:48:32.837Z,101871.43
2019-01-21T21:50:59.966Z,101858.07
2019-01-21T21:53:27.222Z,101862.83
2019-01-21T21:55:54.935Z,101857.70
2019-01-21T21:58:22.097Z,101851.19
2019-01-21T22:00:49.247Z,101848.69
2019-01-21T22:03:17.424Z,101854.35
2019-01-21T22:05:44.451Z,101844.84
2019-01-21T22:08:11.501Z,101843.78
2019-01-21T22:10:38.610Z,101838.28
2019-01-21T22:13:05.747Z,101836.43
2019-01-21T22:15:32.839Z,101836.09
2019-01-21T22:17:59.977Z,101832.02
2019-01-21T22:20:27.206Z,101827.27
2019-01-21T22:22:54.242Z,101824.79
2019-01-21T22:25:21.295Z,101820.41
2019-01-21T22:27:48.353Z,101827.27
2019-01-21T22:30:20.366Z,101821.27
2019-01-21T22:32:47.593Z,101814.32
2019-01-21T22:35:14.767Z,101813.56
2019-01-21T22:37:41.906Z,101810.47
2019-01-21T22:40:11.771Z,101805.12
2019-01-21T22:42:38.880Z,101797.13
2019-01-21T22:45:07.442Z,101792.67
2019-01-21T22:47:34.860Z,101790.27
2019-01-21T22:50:02.432Z,101782.23
2019-01-21T22:52:29.669Z,101777.19
2019-01-21T22:54:56.770Z,101775.44
2019-01-21T22:57:23.906Z,101775.44
2019-01-21T22:59:51.003Z,101770.48
2019-01-21T23:02:18.471Z,101772.46
2019-01-21T23:04:45.510Z,101773.15
2019-01-21T23:07:13.012Z,101771.03
2019-01-21T23:09:41.250Z,101764.84
2019-01-21T23:12:08.294Z,101758.35
2019-01-21T23:14:35.395Z,101750.05
2019-01-21T23:17:02.783Z,101749.74
2019-01-21T23:19:29.846Z,101753.66
2019-01-21T23:21:57.202Z,101745.44
2019-01-21T23:24:24.305Z,101744.75
2019-01-21T23:26:51.354Z,101746.19
2019-01-21T23:29:18.484Z,101744.83
2019-01-21T23:31:45.673Z,101740.06
2019-01-21T23:34:12.707Z,101739.77
2019-01-21T23:36:39.750Z,101730.64
2019-01-21T23:39:07.594Z,101733.35
2019-01-21T23:41:34.740Z,101721.80
2019-01-21T23:44:01.835Z,101717.80
2019-01-21T23:46:28.888Z,101717.65
2019-01-21T23:48:56.077Z,101705.19
2019-01-21T23:51:23.344Z,101704.29
2019-01-21T23:53:50.428Z,101698.63
2019-01-21T23:56:17.520Z,101704.89
2019-01-21T23:58:44.698Z,101702.33
